Time,TemperatureF,DewpointF,PressureIn,WindDirection,WindDirectionDegrees,WindSpeedMPH,WindSpeedGustMPH,Humidity,HourlyPrecipIn,Conditions,Clouds,dailyrainin,SoftwareType,DateUTC
2013-01-25 00:07:00,12.2,-1.0,30.42,ESE,110,3.0,19.0,56,0.00,,,0.00,weatherlink.com 1.10,2013-01-25 05:07:00,
2013-01-25 00:22:00,12.1,-1.0,30.43,NE,51,8.0,11.0,57,0.00,,,0.00,weatherlink.com 1.10,2013-01-25 05:22:00,
2013-01-25 00:37:00,11.9,-1.0,30.42,NE,53,4.0,13.0,57,0.00,,,0.00,weatherlink.com 1.10,2013-01-25 05:37:00,
2013-01-25 00:52:00,11.7,-1.0,30.42,North,8,3.0,14.0,58,0.00,,,0.00,weatherlink.com 1.10,2013-01-25 05:52:00,
2013-01-25 01:07:00,11.5,0.0,30.43,NE,50,7.0,7.0,60,0.00,,,0.00,weatherlink.com 1.10,2013-01-25 06:07:00,
2013-01-25 01:22:00,11.4,0.0,30.43,NE,52,6.0,21.0,61,0.00,,,0.00,weatherlink.com 1.10,2013-01-25 06:22:00,
2013-01-25 01:37:00,11.4,0.0,30.43,NE,50,4.0,16.0,61,0.00,,,0.00,weatherlink.com 1.10,2013-01-25 06:37:00,
2013-01-25 01:52:00,11.4,1.0,30.44,ENE,60,2.0,15.0,62,0.00,,,0.00,weatherlink.com 1.10,2013-01-25 06:52:00,
2013-01-25 02:07:00,11.4,1.0,30.42,NW,324,5.0,17.0,63,0.00,,,0.00,weatherlink.com 1.10,2013-01-25 07:07:00,
2013-01-25 02:22:00,11.4,1.0,30.43,ESE,107,4.0,9.0,63,0.00,,,0.00,weatherlink.com 1.10,2013-01-25 07:22:00,
2013-01-25 02:37:00,11.3,1.0,30.44,SSW,201,0.0,6.0,63,0.00,,,0.00,weatherlink.com 1.10,2013-01-25 07:37:00,
2013-01-25 02:53:00,11.3,1.0,30.43,West,260,0.0,4.0,63,0.00,,,0.00,weatherlink.com 1.10,2013-01-25 07:53:00,
2013-01-25 03:08:00,11.7,1.0,30.42,ENE,65,6.0,8.0,62,0.00,,,0.00,weatherlink.com 1.10,2013-01-25 08:08:00,
2013-01-25 03:23:00,11.3,1.0,30.42,NE,56,3.0,8.0,63,0.00,,,0.00,weatherlink.com 1.10,2013-01-25 08:23:00,
2013-01-25 03:38:00,11.5,1.0,30.43,North,6,2.0,7.0,63,0.00,,,0.00,weatherlink.com 1.10,2013-01-25 08:38:00,
2013-01-25 03:53:00,11.5,1.0,30.42,NNW,329,0.0,10.0,63,0.00,,,0.00,weatherlink.com 1.10,2013-01-25 08:53:00,
2013-01-25 04:08:00,11.2,1.0,30.43,West,277,0.0,8.0,63,0.00,,,0.00,weatherlink.com 1.10,2013-01-25 09:08:00,
2013-01-25 04:23:00,11.0,1.0,30.43,NNE,12,4.0,7.0,64,0.00,,,0.00,weatherlink.com 1.10,2013-01-25 09:23:00,
2013-01-25 04:38:00,10.9,1.0,30.43,ENE,68,3.0,7.0,65,0.00,,,0.00,weatherlink.com 1.10,2013-01-25 09:38:00,
2013-01-25 04:53:00,11.2,1.0,30.43,NNE,32,1.0,4.0,64,0.00,,,0.00,weatherlink.com 1.10,2013-01-25 09:53:00,
2013-01-25 05:09:00,10.8,1.0,30.43,NNE,28,7.0,9.0,65,0.00,,,0.00,weatherlink.com 1.10,2013-01-25 10:09:00,
2013-01-25 05:23:00,10.9,1.0,30.43,NNE,15,2.0,6.0,65,0.00,,,0.00,weatherlink.com 1.10,2013-01-25 10:23:00,
2013-01-25 05:39:00,10.9,2.0,30.43,NE,50,1.0,4.0,66,0.00,,,0.00,weatherlink.com 1.10,2013-01-25 10:39:00,
2013-01-25 05:53:00,10.9,2.0,30.43,NNE,20,1.0,6.0,66,0.00,,,0.00,weatherlink.com 1.10,2013-01-25 10:53:00,
2013-01-25 06:08:00,11.0,2.0,30.43,East,89,2.0,4.0,66,0.00,,,0.00,weatherlink.com 1.10,2013-01-25 11:08:00,
2013-01-25 06:24:00,10.7,2.0,30.43,West,280,1.0,1.0,67,0.00,,,0.00,weatherlink.com 1.10,2013-01-25 11:24:00,
2013-01-25 06:39:00,10.8,2.0,30.43,East,94,1.0,5.0,67,0.00,,,0.00,weatherlink.com 1.10,2013-01-25 11:39:00,
2013-01-25 06:54:00,11.1,2.0,30.43,NE,46,3.0,5.0,67,0.00,,,0.00,weatherlink.com 1.10,2013-01-25 11:54:00,
2013-01-25 07:09:00,11.2,2.0,30.43,North,1,1.0,4.0,67,0.00,,,0.00,weatherlink.com 1.10,2013-01-25 12:09:00,
2013-01-25 07:24:00,11.1,2.0,30.43,West,277,0.0,2.0,67,0.00,,,0.00,weatherlink.com 1.10,2013-01-25 12:24:00,
2013-01-25 07:39:00,11.0,2.0,30.43,West,281,0.0,1.0,67,0.00,,,0.00,weatherlink.com 1.10,2013-01-25 12:39:00,
2013-01-25 07:54:00,11.3,3.0,30.43,NNE,19,0.0,2.0,68,0.00,,,0.00,weatherlink.com 1.10,2013-01-25 12:54:00,
2013-01-25 08:09:00,11.7,2.0,30.43,NE,35,1.0,5.0,66,0.00,,,0.00,weatherlink.com 1.10,2013-01-25 13:09:00,
2013-01-25 08:24:00,12.5,3.0,30.43,NNW,329,0.0,3.0,67,0.00,,,0.00,weatherlink.com 1.10,2013-01-25 13:24:00,
2013-01-25 08:39:00,13.1,3.0,30.42,ESE,112,1.0,3.0,64,0.00,,,0.00,weatherlink.com 1.10,2013-01-25 13:39:00,
2013-01-25 08:54:00,13.3,3.0,30.43,ENE,60,6.0,8.0,63,0.00,,,0.00,weatherlink.com 1.10,2013-01-25 13:54:00,
2013-01-25 09:09:00,14.0,3.0,30.43,NNE,32,1.0,4.0,63,0.00,,,0.00,weatherlink.com 1.10,2013-01-25 14:09:00,
2013-01-25 09:25:00,14.4,3.0,30.43,East,100,0.0,4.0,61,0.00,,,0.00,weatherlink.com 1.10,2013-01-25 14:25:00,
2013-01-25 09:39:00,14.6,3.0,30.43,ENE,67,3.0,7.0,60,0.00,,,0.00,weatherlink.com 1.10,2013-01-25 14:39:00,
2013-01-25 09:55:00,15.5,4.0,30.44,ENE,63,3.0,4.0,60,0.00,,,0.00,weatherlink.com 1.10,2013-01-25 14:55:00,
2013-01-25 10:10:00,16.0,4.0,30.44,East,85,0.0,3.0,58,0.00,,,0.00,weatherlink.com 1.10,2013-01-25 15:10:00,
2013-01-25 10:25:00,16.6,4.0,30.44,NNW,342,3.0,5.0,57,0.00,,,0.00,weatherlink.com 1.10,2013-01-25 15:25:00,
2013-01-25 10:40:00,17.0,3.0,30.43,NNE,15,4.0,4.0,54,0.00,,,0.00,weatherlink.com 1.10,2013-01-25 15:40:00,
2013-01-25 10:55:00,18.0,3.0,30.42,South,179,0.0,4.0,53,0.00,,,0.00,weatherlink.com 1.10,2013-01-25 15:55:00,
2013-01-25 11:10:00,18.8,4.0,30.40,ENE,67,0.0,2.0,52,0.00,,,0.00,weatherlink.com 1.10,2013-01-25 16:10:00,
2013-01-25 11:25:00,19.5,4.0,30.40,SSW,212,0.0,3.0,50,0.00,,,0.00,weatherlink.com 1.10,2013-01-25 16:25:00,
2013-01-25 11:40:00,20.2,4.0,30.38,NE,41,0.0,2.0,50,0.00,,,0.00,weatherlink.com 1.10,2013-01-25 16:40:00,
2013-01-25 11:55:00,20.0,4.0,30.36,East,98,1.0,3.0,49,0.00,,,0.00,weatherlink.com 1.10,2013-01-25 16:55:00,
2013-01-25 12:10:00,20.0,4.0,30.35,ENE,75,2.0,4.0,49,0.00,,,0.00,weatherlink.com 1.10,2013-01-25 17:10:00,
2013-01-25 12:25:00,21.0,4.0,30.34,South,190,2.0,2.0,48,0.00,,,0.00,weatherlink.com 1.10,2013-01-25 17:25:00,
2013-01-25 12:40:00,21.5,3.0,30.33,SSE,158,1.0,2.0,45,0.00,,,0.00,weatherlink.com 1.10,2013-01-25 17:40:00,
2013-01-25 12:55:00,22.2,3.0,30.32,SSE,165,0.0,1.0,43,0.00,,,0.00,weatherlink.com 1.10,2013-01-25 17:55:00,
2013-01-25 13:11:00,21.7,4.0,30.31,WNW,302,3.0,4.0,46,0.00,,,0.00,weatherlink.com 1.10,2013-01-25 18:11:00,
2013-01-25 13:26:00,21.9,3.0,30.30,WNW,291,2.0,4.0,45,0.00,,,0.00,weatherlink.com 1.10,2013-01-25 18:26:00,
2013-01-25 13:41:00,23.0,3.0,30.28,NE,53,2.0,4.0,43,0.00,,,0.00,weatherlink.com 1.10,2013-01-25 18:41:00,
2013-01-25 13:56:00,23.4,5.0,30.28,SSE,156,1.0,1.0,45,0.00,,,0.00,weatherlink.com 1.10,2013-01-25 18:56:00,
2013-01-25 14:11:00,22.9,4.0,30.27,SW,219,1.0,4.0,44,0.00,,,0.00,weatherlink.com 1.10,2013-01-25 19:11:00,
2013-01-25 14:26:00,22.4,4.0,30.27,WSW,242,1.0,2.0,46,0.00,,,0.00,weatherlink.com 1.10,2013-01-25 19:26:00,
2013-01-25 14:41:00,22.2,4.0,30.26,NNW,330,3.0,3.0,46,0.00,,,0.00,weatherlink.com 1.10,2013-01-25 19:41:00,
2013-01-25 14:56:00,22.3,4.0,30.25,SW,225,1.0,5.0,45,0.00,,,0.00,weatherlink.com 1.10,2013-01-25 19:56:00,
2013-01-25 15:11:00,22.0,3.0,30.25,NNW,333,1.0,5.0,44,0.00,,,0.00,weatherlink.com 1.10,2013-01-25 20:11:00,
2013-01-25 15:26:00,22.0,4.0,30.24,WNW,295,2.0,4.0,46,0.00,,,0.00,weatherlink.com 1.10,2013-01-25 20:26:00,
2013-01-25 15:41:00,21.6,4.0,30.25,NW,322,3.0,3.0,46,0.00,,,0.00,weatherlink.com 1.10,2013-01-25 20:41:00,
2013-01-25 15:56:00,21.4,3.0,30.24,WNW,285,2.0,5.0,46,0.00,,,0.00,weatherlink.com 1.10,2013-01-25 20:56:00,
2013-01-25 16:12:00,21.4,3.0,30.24,WSW,238,0.0,4.0,46,0.00,,,0.00,weatherlink.com 1.10,2013-01-25 21:12:00,
2013-01-25 16:26:00,21.5,4.0,30.23,NW,316,0.0,4.0,46,0.00,,,0.00,weatherlink.com 1.10,2013-01-25 21:26:00,
2013-01-25 16:42:00,21.4,3.0,30.22,NW,305,0.0,4.0,46,0.00,,,0.00,weatherlink.com 1.10,2013-01-25 21:42:00,
2013-01-25 16:57:00,21.4,4.0,30.22,West,270,0.0,2.0,47,0.00,,,0.00,weatherlink.com 1.10,2013-01-25 21:57:00,
2013-01-25 17:12:00,21.5,4.0,30.21,West,263,2.0,2.0,47,0.00,,,0.00,weatherlink.com 1.10,2013-01-25 22:12:00,
2013-01-25 17:27:00,21.4,4.0,30.21,SW,214,0.0,2.0,48,0.00,,,0.00,weatherlink.com 1.10,2013-01-25 22:27:00,
2013-01-25 17:42:00,21.1,9.0,30.20,WNW,295,3.0,8.0,59,0.00,,,0.00,weatherlink.com 1.10,2013-01-25 22:42:00,
2013-01-25 17:57:00,20.5,12.0,30.19,West,260,1.0,5.0,69,0.00,,,0.00,weatherlink.com 1.10,2013-01-25 22:57:00,
2013-01-25 18:12:00,19.4,15.0,30.18,NW,305,2.0,5.0,82,0.00,,,0.00,weatherlink.com 1.10,2013-01-25 23:12:00,
2013-01-25 18:27:00,18.9,15.0,30.18,WNW,300,4.0,4.0,85,0.00,,,0.00,weatherlink.com 1.10,2013-01-25 23:27:00,
2013-01-25 18:42:00,18.5,15.0,30.17,WNW,296,0.0,5.0,86,0.00,,,0.00,weatherlink.com 1.10,2013-01-25 23:42:00,
2013-01-25 18:57:00,18.3,15.0,30.17,NW,311,1.0,3.0,86,0.00,,,0.00,weatherlink.com 1.10,2013-01-25 23:57:00,
2013-01-25 19:13:00,18.3,15.0,30.17,NNW,346,0.0,4.0,87,0.00,,,0.00,weatherlink.com 1.10,2013-01-26 00:13:00,
2013-01-25 19:27:00,18.1,15.0,30.16,WNW,288,0.0,5.0,86,0.00,,,0.00,weatherlink.com 1.10,2013-01-26 00:27:00,
2013-01-25 19:42:00,17.9,14.0,30.16,NNW,338,1.0,3.0,86,0.00,,,0.00,weatherlink.com 1.10,2013-01-26 00:42:00,
2013-01-25 19:58:00,17.9,15.0,30.15,NNE,32,0.0,3.0,88,0.00,,,0.00,weatherlink.com 1.10,2013-01-26 00:58:00,
2013-01-25 20:13:00,17.9,15.0,30.15,WSW,250,0.0,3.0,87,0.00,,,0.00,weatherlink.com 1.10,2013-01-26 01:13:00,
2013-01-25 20:28:00,17.8,15.0,30.15,NNE,28,0.0,3.0,87,0.00,,,0.00,weatherlink.com 1.10,2013-01-26 01:28:00,
2013-01-25 20:43:00,17.7,14.0,30.14,North,10,1.0,7.0,86,0.00,,,0.00,weatherlink.com 1.10,2013-01-26 01:43:00,
2013-01-25 20:58:00,17.6,14.0,30.13,NNE,32,0.0,3.0,87,0.00,,,0.00,weatherlink.com 1.10,2013-01-26 01:58:00,
2013-01-25 21:13:00,17.4,14.0,30.13,NNW,345,0.0,2.0,87,0.00,,,0.00,weatherlink.com 1.10,2013-01-26 02:13:00,
2013-01-25 21:28:00,16.9,14.0,30.13,NNW,336,0.0,1.0,87,0.00,,,0.00,weatherlink.com 1.10,2013-01-26 02:28:00,
2013-01-25 21:43:00,16.2,13.0,30.12,NNW,335,0.0,1.0,88,0.00,,,0.00,weatherlink.com 1.10,2013-01-26 02:43:00,
2013-01-25 21:58:00,15.7,13.0,30.12,NNW,335,0.0,1.0,88,0.00,,,0.00,weatherlink.com 1.10,2013-01-26 02:58:00,
2013-01-25 22:13:00,15.2,13.0,30.11,NNW,330,0.0,1.0,89,0.00,,,0.00,weatherlink.com 1.10,2013-01-26 03:13:00,
2013-01-25 22:28:00,14.3,12.0,30.11,NNW,330,0.0,0.0,89,0.00,,,0.00,weatherlink.com 1.10,2013-01-26 03:28:00,
2013-01-25 22:43:00,13.8,11.0,30.11,NNW,330,0.0,0.0,90,0.00,,,0.00,weatherlink.com 1.10,2013-01-26 03:43:00,
2013-01-25 22:59:00,13.4,11.0,30.11,NNW,330,0.0,0.0,91,0.00,,,0.00,weatherlink.com 1.10,2013-01-26 03:59:00,
2013-01-25 23:13:00,13.3,11.0,30.11,NNW,332,0.0,1.0,91,0.00,,,0.00,weatherlink.com 1.10,2013-01-26 04:13:00,
2013-01-25 23:29:00,13.2,11.0,30.11,NNW,331,0.0,0.0,91,0.00,,,0.00,weatherlink.com 1.10,2013-01-26 04:29:00,
2013-01-25 23:44:00,13.2,11.0,30.10,NNW,332,0.0,1.0,92,0.00,,,0.00,weatherlink.com 1.10,2013-01-26 04:44:00,
2013-01-25 23:59:00,13.3,11.0,30.10,NW,322,0.0,0.0,92,0.00,,,0.00,weatherlink.com 1.10,2013-01-26 04:59:00,